createdAt,value
2022-10-10T00:02:48.238Z,92.76
2022-10-10T00:05:40.686Z,92.55
2022-10-10T00:08:28.399Z,93.48
2022-10-10T00:11:34.221Z,93.68
2022-10-10T00:14:35.425Z,95.17
2022-10-10T00:17:36.348Z,95.94
2022-10-10T00:20:06.128Z,95.73
2022-10-10T00:22:48.564Z,95.66
2022-10-10T00:25:41.302Z,95.59
2022-10-10T00:28:40.667Z,95.54
2022-10-10T00:31:53.136Z,95.29
2022-10-10T00:34:42.955Z,95.09
2022-10-10T00:37:45.735Z,94.98
2022-10-10T00:40:29.684Z,95.86
2022-10-10T00:43:28.632Z,97.11
2022-10-10T00:46:23.624Z,96.86
2022-10-10T00:49:15.223Z,96.56
2022-10-10T00:52:09.981Z,96.15
2022-10-10T00:54:56.219Z,95.94
2022-10-10T00:57:53.848Z,95.80
2022-10-10T01:00:43.603Z,95.49
2022-10-10T01:03:24.055Z,95.37
2022-10-10T01:06:25.336Z,95.46
2022-10-10T01:09:27.015Z,95.29
2022-10-10T01:12:27.785Z,95.19
2022-10-10T01:15:42.927Z,95.08
2022-10-10T01:18:36.514Z,94.99
2022-10-10T01:21:53.614Z,95.20
2022-10-10T01:24:42.341Z,95.28
2022-10-10T01:28:21.893Z,95.57
2022-10-10T01:31:17.220Z,95.83
2022-10-10T01:34:38.196Z,95.85
2022-10-10T01:37:47.859Z,95.58
2022-10-10T01:41:34.348Z,95.35
2022-10-10T01:44:25.764Z,95.21
2022-10-10T01:47:16.556Z,94.93
2022-10-10T01:50:05.525Z,94.84
2022-10-10T01:52:57.830Z,94.86
2022-10-10T01:56:03.054Z,94.91
2022-10-10T01:59:17.917Z,95.00
2022-10-10T02:02:06.703Z,94.84
2022-10-10T02:04:51.869Z,94.71
2022-10-10T02:08:01.461Z,94.76
2022-10-10T02:10:53.851Z,94.79
2022-10-10T02:14:05.950Z,95.38
2022-10-10T02:17:25.088Z,95.93
2022-10-10T02:20:39.675Z,95.63
2022-10-10T02:23:43.068Z,95.56
2022-10-10T02:26:21.427Z,95.65
2022-10-10T02:30:00.966Z,95.37
2022-10-10T02:33:00.424Z,95.55
2022-10-10T02:35:51.070Z,95.73
2022-10-10T02:38:39.470Z,96.02
2022-10-10T02:41:48.651Z,95.90
2022-10-10T02:44:23.386Z,96.12
2022-10-10T02:50:35.977Z,96.68
2022-10-10T02:54:01.567Z,96.76
2022-10-10T02:56:54.891Z,96.72
2022-10-10T02:59:42.510Z,96.95
2022-10-10T03:02:51.538Z,97.34
2022-10-10T03:05:50.779Z,98.12
2022-10-10T03:09:06.663Z,98.25
2022-10-10T03:12:04.385Z,98.02
2022-10-10T03:14:42.939Z,97.98
2022-10-10T03:17:24.164Z,97.90
2022-10-10T03:20:20.674Z,97.82
2022-10-10T03:23:00.676Z,97.61
2022-10-10T03:25:47.926Z,97.48
2022-10-10T03:28:20.383Z,97.01
2022-10-10T03:33:54.553Z,96.98
2022-10-10T03:36:51.334Z,96.88
2022-10-10T03:40:06.718Z,96.70
2022-10-10T03:42:57.503Z,96.68
2022-10-10T03:45:43.703Z,96.61
2022-10-10T03:48:27.530Z,96.33
2022-10-10T03:51:19.181Z,96.17
2022-10-10T03:54:25.447Z,96.18
2022-10-10T03:57:14.159Z,96.09
2022-10-10T03:59:54.363Z,96.06
2022-10-10T04:02:26.142Z,96.21
2022-10-10T04:04:57.481Z,96.17
2022-10-10T04:07:42.163Z,96.36
2022-10-10T04:10:37.718Z,97.01
2022-10-10T04:14:12.556Z,97.17
2022-10-10T04:16:49.737Z,97.07
2022-10-10T04:20:08.631Z,97.02
2022-10-10T04:22:53.858Z,96.97
2022-10-10T04:25:44.772Z,97.06
2022-10-10T04:28:26.005Z,97.26
2022-10-10T04:31:02.040Z,97.30
2022-10-10T04:34:01.382Z,97.55
2022-10-10T04:36:52.931Z,97.61
2022-10-10T04:39:23.057Z,97.72
2022-10-10T04:42:08.088Z,97.94
2022-10-10T04:44:50.445Z,98.22
2022-10-10T04:47:27.011Z,98.14
2022-10-10T04:50:25.169Z,98.65
2022-10-10T04:53:08.104Z,98.50
2022-10-10T04:56:20.712Z,98.25
2022-10-10T04:59:18.181Z,98.46
2022-10-10T05:02:06.793Z,99.20
2022-10-10T05:04:51.233Z,99.56
2022-10-10T05:07:44.765Z,99.12
2022-10-10T05:10:25.297Z,98.35
2022-10-10T05:12:58.548Z,98.18
2022-10-10T05:15:46.850Z,98.14
2022-10-10T05:18:30.589Z,98.05
2022-10-10T05:21:11.627Z,98.34
2022-10-10T05:24:00.899Z,98.72
2022-10-10T05:27:22.436Z,98.85
2022-10-10T05:33:58.893Z,98.86
2022-10-10T05:37:17.350Z,99.03
2022-10-10T05:40:14.044Z,99.22
2022-10-10T05:43:15.270Z,99.83
2022-10-10T05:45:55.783Z,100.00
2022-10-10T05:48:43.531Z,100.00
2022-10-10T05:51:40.076Z,100.00
2022-10-10T05:54:27.436Z,100.00
2022-10-10T05:57:16.214Z,100.00
2022-10-10T05:59:44.940Z,100.00
2022-10-10T06:02:23.177Z,100.00
2022-10-10T06:05:04.727Z,100.00
2022-10-10T06:08:03.582Z,100.00
2022-10-10T06:11:15.874Z,100.00
2022-10-10T06:13:54.421Z,100.00
2022-10-10T06:16:53.247Z,100.00
2022-10-10T06:19:55.453Z,100.00
2022-10-10T06:22:48.737Z,100.00
2022-10-10T06:25:53.563Z,100.00
2022-10-10T06:28:35.885Z,100.00
2022-10-10T06:31:15.561Z,100.00
2022-10-10T06:33:58.122Z,100.00
2022-10-10T06:37:16.583Z,100.00
2022-10-10T06:40:07.626Z,100.00
2022-10-10T06:42:38.574Z,100.00
2022-10-10T06:45:17.270Z,100.00
2022-10-10T06:47:50.276Z,100.00
2022-10-10T06:51:04.430Z,100.00
2022-10-10T06:54:08.124Z,100.00
2022-10-10T06:56:44.448Z,100.00
2022-10-10T06:59:21.279Z,100.00
2022-10-10T07:02:00.108Z,100.00
2022-10-10T07:04:28.680Z,100.00
2022-10-10T07:07:12.492Z,100.00
2022-10-10T07:10:19.611Z,100.00
2022-10-10T07:13:13.246Z,100.00
2022-10-10T07:16:11.613Z,100.00
2022-10-10T07:18:54.211Z,100.00
2022-10-10T07:22:02.950Z,100.00
2022-10-10T07:24:49.052Z,100.00
2022-10-10T07:27:37.137Z,100.00
2022-10-10T07:30:41.790Z,100.00
2022-10-10T07:33:27.261Z,100.00
2022-10-10T07:36:16.736Z,100.00
2022-10-10T07:39:06.607Z,100.00
2022-10-10T07:42:00.300Z,100.00
2022-10-10T07:45:00.070Z,100.00
2022-10-10T07:47:53.228Z,100.00
2022-10-10T07:50:48.881Z,100.00
2022-10-10T07:53:34.178Z,100.00
2022-10-10T07:56:27.716Z,100.00
2022-10-10T07:59:35.790Z,100.00
2022-10-10T08:02:28.491Z,100.00
2022-10-10T08:05:39.154Z,100.00
2022-10-10T08:08:32.975Z,100.00
2022-10-10T08:11:33.088Z,100.00
2022-10-10T08:14:39.483Z,100.00
2022-10-10T08:17:16.581Z,100.00
2022-10-10T08:20:01.348Z,99.61
2022-10-10T08:22:45.042Z,99.54
2022-10-10T08:26:11.841Z,97.92
2022-10-10T08:28:51.519Z,96.36
2022-10-10T08:31:31.384Z,96.68
2022-10-10T08:34:25.274Z,96.19
2022-10-10T08:37:15.783Z,95.55
2022-10-10T08:40:04.775Z,93.65
2022-10-10T08:42:54.867Z,93.69
2022-10-10T08:45:50.028Z,91.93
2022-10-10T08:48:40.917Z,91.51
2022-10-10T08:51:16.560Z,90.40
2022-10-10T08:53:57.826Z,88.98
2022-10-10T08:56:56.879Z,88.98
2022-10-10T08:59:50.782Z,87.85
2022-10-10T09:06:54.917Z,87.07
2022-10-10T09:10:15.142Z,85.88
2022-10-10T09:13:00.923Z,85.34
2022-10-10T09:16:15.418Z,84.37
2022-10-10T09:19:07.850Z,84.39
2022-10-10T09:21:38.484Z,84.52
2022-10-10T09:24:32.900Z,82.21
2022-10-10T09:27:25.383Z,80.69
2022-10-10T09:30:14.894Z,81.08
2022-10-10T09:32:53.124Z,81.25
2022-10-10T09:35:39.272Z,79.29
2022-10-10T09:38:31.633Z,77.98
2022-10-10T09:42:01.407Z,77.11
2022-10-10T09:44:41.558Z,76.67
2022-10-10T09:47:27.393Z,76.63
2022-10-10T09:50:11.961Z,76.63
2022-10-10T09:53:17.085Z,75.82
2022-10-10T09:55:54.675Z,73.94
2022-10-10T09:58:40.859Z,75.05
2022-10-10T10:01:30.663Z,73.12
2022-10-10T10:04:29.055Z,70.80
2022-10-10T10:07:29.595Z,70.97
2022-10-10T10:10:26.393Z,70.87
2022-10-10T10:13:12.271Z,69.84
2022-10-10T10:16:04.680Z,67.56
2022-10-10T10:18:45.189Z,64.58
2022-10-10T10:21:25.025Z,60.64
2022-10-10T10:24:24.314Z,57.67
2022-10-10T10:27:17.554Z,56.75
2022-10-10T10:30:23.691Z,58.12
2022-10-10T10:33:14.909Z,55.65
2022-10-10T10:36:05.415Z,56.85
2022-10-10T10:39:07.136Z,58.12
2022-10-10T10:41:51.460Z,58.02
2022-10-10T10:44:57.712Z,56.13
2022-10-10T10:47:51.949Z,57.99
2022-10-10T10:50:51.696Z,56.01
2022-10-10T10:53:54.006Z,55.75
2022-10-10T10:56:48.491Z,58.13
2022-10-10T11:01:20.240Z,55.91
2022-10-10T11:05:16.364Z,54.17
2022-10-10T11:07:38.146Z,54.58
2022-10-10T11:10:52.021Z,53.70
2022-10-10T11:13:55.241Z,53.23
2022-10-10T11:16:51.777Z,51.77
2022-10-10T11:19:56.429Z,51.43
2022-10-10T11:23:13.728Z,52.32
2022-10-10T11:26:11.092Z,53.98
2022-10-10T11:29:47.889Z,53.01
2022-10-10T11:33:00.423Z,53.57
2022-10-10T11:35:42.668Z,54.23
2022-10-10T11:38:30.690Z,55.40
2022-10-10T11:41:43.637Z,54.90
2022-10-10T11:44:39.394Z,54.39
2022-10-10T11:48:12.082Z,54.94
2022-10-10T11:51:16.144Z,56.01
2022-10-10T11:53:48.354Z,55.33
2022-10-10T11:56:46.077Z,53.58
2022-10-10T12:00:03.002Z,54.01
2022-10-10T12:02:45.206Z,53.04
2022-10-10T12:06:01.108Z,53.12
2022-10-10T12:09:10.658Z,50.40
2022-10-10T12:11:59.196Z,50.18
2022-10-10T12:14:46.929Z,47.99
2022-10-10T12:17:44.505Z,46.87
2022-10-10T12:20:41.746Z,47.75
2022-10-10T12:23:37.286Z,47.52
2022-10-10T12:26:39.328Z,45.54
2022-10-10T12:29:30.786Z,44.41
2022-10-10T12:32:40.397Z,44.70
2022-10-10T12:35:34.253Z,46.37
2022-10-10T12:38:28.908Z,46.06
2022-10-10T12:41:34.433Z,44.58
2022-10-10T12:44:25.623Z,45.10
2022-10-10T12:47:46.236Z,44.69
2022-10-10T12:51:09.775Z,45.37
2022-10-10T12:53:54.652Z,45.35
2022-10-10T12:57:04.941Z,44.58
2022-10-10T12:59:47.263Z,45.14
2022-10-10T13:02:41.267Z,44.84
2022-10-10T13:05:17.516Z,45.64
2022-10-10T13:08:07.453Z,44.86
2022-10-10T13:10:51.299Z,43.05
2022-10-10T13:13:24.926Z,43.19
2022-10-10T13:16:17.507Z,42.43
2022-10-10T13:19:02.624Z,42.52
2022-10-10T13:21:36.988Z,42.74
2022-10-10T13:24:14.049Z,42.80
2022-10-10T13:26:53.801Z,43.40
2022-10-10T13:30:04.312Z,43.13
2022-10-10T13:32:58.303Z,42.37
2022-10-10T13:36:18.573Z,43.16
2022-10-10T13:39:07.619Z,43.96
2022-10-10T13:42:49.736Z,44.65
2022-10-10T13:45:55.770Z,45.47
2022-10-10T13:48:57.365Z,47.40
2022-10-10T13:51:45.046Z,47.39
2022-10-10T13:54:39.407Z,48.39
2022-10-10T13:57:18.200Z,48.86
2022-10-10T13:59:58.192Z,49.40
2022-10-10T14:02:50.958Z,50.16
2022-10-10T14:05:41.001Z,50.43
2022-10-10T14:08:39.141Z,50.32
2022-10-10T14:11:08.672Z,50.72
2022-10-10T14:13:54.539Z,51.00
2022-10-10T14:17:04.785Z,50.60
2022-10-10T14:20:13.379Z,50.82
2022-10-10T14:23:01.862Z,51.03
2022-10-10T14:25:45.065Z,51.82
2022-10-10T14:31:38.474Z,51.35
2022-10-10T14:34:20.353Z,51.68
2022-10-10T14:37:12.750Z,52.26
2022-10-10T14:39:59.139Z,52.59
2022-10-10T14:42:46.096Z,52.92
2022-10-10T14:45:21.177Z,53.47
2022-10-10T14:47:54.478Z,53.84
2022-10-10T14:50:51.525Z,54.03
2022-10-10T14:53:39.273Z,54.37
2022-10-10T14:56:20.326Z,54.47
2022-10-10T14:59:49.342Z,54.54
2022-10-10T15:02:40.817Z,55.02
2022-10-10T15:05:36.180Z,55.06
2022-10-10T15:08:11.180Z,55.51
2022-10-10T15:11:05.923Z,55.67
2022-10-10T15:13:54.203Z,56.14
2022-10-10T15:16:38.360Z,56.46
2022-10-10T15:19:27.315Z,57.17
2022-10-10T15:22:30.272Z,57.20
2022-10-10T15:25:10.901Z,57.64
2022-10-10T15:28:08.801Z,58.03
2022-10-10T15:31:29.780Z,58.55
2022-10-10T15:37:30.744Z,59.81
2022-10-10T15:40:40.033Z,60.23
2022-10-10T15:43:51.637Z,60.93
2022-10-10T15:46:31.448Z,61.55
2022-10-10T15:49:07.987Z,62.13
2022-10-10T15:51:52.926Z,62.67
2022-10-10T15:54:38.322Z,63.25
2022-10-10T15:57:23.753Z,63.78
2022-10-10T16:00:14.874Z,64.17
2022-10-10T16:02:52.140Z,64.93
2022-10-10T16:05:28.972Z,65.57
2022-10-10T16:08:04.951Z,66.18
2022-10-10T16:10:52.909Z,66.53
2022-10-10T16:13:41.105Z,67.07
2022-10-10T16:16:45.496Z,67.56
2022-10-10T16:19:30.420Z,67.93
2022-10-10T16:22:27.140Z,68.22
2022-10-10T16:25:22.170Z,68.18
2022-10-10T16:28:34.415Z,68.51
2022-10-10T16:34:21.594Z,69.71
2022-10-10T16:37:04.503Z,70.04
2022-10-10T16:39:57.973Z,70.30
2022-10-10T16:42:51.652Z,70.31
2022-10-10T16:45:26.525Z,70.40
2022-10-10T16:48:26.572Z,71.12
2022-10-10T16:51:15.675Z,72.17
2022-10-10T16:53:46.934Z,71.97
2022-10-10T16:56:40.061Z,72.11
2022-10-10T16:59:19.778Z,72.85
2022-10-10T17:02:24.782Z,73.48
2022-10-10T17:05:24.240Z,73.67
2022-10-10T17:08:26.803Z,74.11
2022-10-10T17:10:59.178Z,74.42
2022-10-10T17:13:44.455Z,74.50
2022-10-10T17:19:49.034Z,75.19
2022-10-10T17:22:42.508Z,75.20
2022-10-10T17:25:32.179Z,75.47
2022-10-10T17:28:30.509Z,75.98
2022-10-10T17:31:42.754Z,76.06
2022-10-10T17:37:46.758Z,76.82
2022-10-10T17:40:47.806Z,77.31
2022-10-10T17:43:25.684Z,76.95
2022-10-10T17:46:32.621Z,77.21
2022-10-10T17:49:11.770Z,77.11
2022-10-10T17:51:52.629Z,77.30
2022-10-10T17:54:34.411Z,77.91
2022-10-10T17:57:28.911Z,78.04
2022-10-10T17:59:59.920Z,78.55
2022-10-10T18:02:34.894Z,78.66
2022-10-10T18:05:33.861Z,78.30
2022-10-10T18:08:19.142Z,78.51
2022-10-10T18:11:13.050Z,78.99
2022-10-10T18:13:52.213Z,79.72
2022-10-10T18:16:26.979Z,79.59
2022-10-10T18:19:15.723Z,79.94
2022-10-10T18:22:16.078Z,79.63
2022-10-10T18:25:01.171Z,79.64
2022-10-10T18:27:49.533Z,80.31
2022-10-10T18:30:39.673Z,80.29
2022-10-10T18:33:23.113Z,80.13
2022-10-10T18:36:12.669Z,80.44
2022-10-10T18:38:53.322Z,80.68
2022-10-10T18:41:41.482Z,80.80
2022-10-10T18:44:30.695Z,81.29
2022-10-10T18:47:25.869Z,81.39
2022-10-10T18:50:00.055Z,81.91
2022-10-10T18:52:52.357Z,81.93
2022-10-10T18:55:37.598Z,82.02
2022-10-10T18:58:40.159Z,82.25
2022-10-10T19:01:23.719Z,82.27
2022-10-10T19:04:15.369Z,82.67
2022-10-10T19:07:18.848Z,82.91
2022-10-10T19:10:06.279Z,83.00
2022-10-10T19:12:42.869Z,82.77
2022-10-10T19:15:34.398Z,82.45
2022-10-10T19:18:23.727Z,82.63
2022-10-10T19:21:04.143Z,82.74
2022-10-10T19:23:44.827Z,82.95
2022-10-10T19:26:35.732Z,82.84
2022-10-10T19:29:11.376Z,83.25
2022-10-10T19:32:01.873Z,83.33
2022-10-10T19:34:38.820Z,83.50
2022-10-10T19:37:21.725Z,83.48
2022-10-10T19:40:02.064Z,83.53
2022-10-10T19:42:54.441Z,83.66
2022-10-10T19:45:25.437Z,83.97
2022-10-10T19:47:54.626Z,84.23
2022-10-10T19:50:38.271Z,84.01
2022-10-10T19:53:31.270Z,84.23
2022-10-10T19:56:14.853Z,84.98
2022-10-10T19:58:56.960Z,84.98
2022-10-10T20:01:46.538Z,85.14
2022-10-10T20:04:40.154Z,85.01
2022-10-10T20:07:17.674Z,85.07
2022-10-10T20:09:59.421Z,85.29
2022-10-10T20:12:48.883Z,86.02
2022-10-10T20:15:51.629Z,86.22
2022-10-10T20:18:21.782Z,86.27
2022-10-10T20:20:52.700Z,86.63
2022-10-10T20:23:30.295Z,86.86
2022-10-10T20:26:23.084Z,87.30
2022-10-10T20:29:07.724Z,87.31
2022-10-10T20:31:39.750Z,87.50
2022-10-10T20:34:12.405Z,87.68
2022-10-10T20:37:01.852Z,88.07
2022-10-10T20:39:47.547Z,88.14
2022-10-10T20:42:20.829Z,88.28
2022-10-10T20:44:56.046Z,88.38
2022-10-10T20:47:34.513Z,88.61
2022-10-10T20:50:36.144Z,88.88
2022-10-10T20:53:22.530Z,88.79
2022-10-10T20:56:14.952Z,88.48
2022-10-10T20:58:53.354Z,88.57
2022-10-10T21:01:28.534Z,88.79
2022-10-10T21:03:58.671Z,88.86
2022-10-10T21:06:42.179Z,88.63
2022-10-10T21:09:37.081Z,88.72
2022-10-10T21:12:04.656Z,88.37
2022-10-10T21:14:42.103Z,88.33
2022-10-10T21:17:36.445Z,88.08
2022-10-10T21:20:42.709Z,88.10
2022-10-10T21:23:14.254Z,88.04
2022-10-10T21:25:48.640Z,88.20
2022-10-10T21:28:36.355Z,87.94
2022-10-10T21:31:42.441Z,88.05
2022-10-10T21:34:45.633Z,87.78
2022-10-10T21:37:33.180Z,87.42
2022-10-10T21:40:06.247Z,87.56
2022-10-10T21:43:03.432Z,87.68
2022-10-10T21:45:44.091Z,87.44
2022-10-10T21:48:19.450Z,87.29
2022-10-10T21:51:05.227Z,87.16
2022-10-10T21:53:47.305Z,87.29
2022-10-10T21:56:24.329Z,87.27
2022-10-10T21:59:11.859Z,87.15
2022-10-10T22:02:11.230Z,87.07
2022-10-10T22:04:49.505Z,86.98
2022-10-10T22:07:23.376Z,87.04
2022-10-10T22:09:55.367Z,86.90
2022-10-10T22:12:39.447Z,86.72
2022-10-10T22:15:14.515Z,86.70
2022-10-10T22:17:55.662Z,86.65
2022-10-10T22:20:27.908Z,86.55
2022-10-10T22:23:11.772Z,86.41
2022-10-10T22:25:51.935Z,86.56
2022-10-10T22:28:27.191Z,86.45
2022-10-10T22:31:23.557Z,86.37
2022-10-10T22:33:53.829Z,86.30
2022-10-10T22:36:38.984Z,86.23
2022-10-10T22:39:18.043Z,86.23
2022-10-10T22:41:57.812Z,86.26
2022-10-10T22:44:40.136Z,86.15
2022-10-10T22:47:10.579Z,86.05
2022-10-10T22:49:49.534Z,85.93
2022-10-10T22:52:39.257Z,86.02
2022-10-10T22:55:48.298Z,85.95
2022-10-10T22:58:34.713Z,85.98
2022-10-10T23:01:26.953Z,85.97
2022-10-10T23:04:13.113Z,85.79
2022-10-10T23:07:07.608Z,85.79
2022-10-10T23:09:50.887Z,85.66
2022-10-10T23:12:43.311Z,85.73
2022-10-10T23:15:28.785Z,85.74
2022-10-10T23:21:15.508Z,85.99
2022-10-10T23:24:07.438Z,85.89
2022-10-10T23:26:43.324Z,86.08
2022-10-10T23:29:37.760Z,85.99
2022-10-10T23:32:28.801Z,85.97
2022-10-10T23:35:20.887Z,86.09
2022-10-10T23:37:58.769Z,86.04
2022-10-10T23:40:32.140Z,86.04
2022-10-10T23:43:17.119Z,86.15
2022-10-10T23:45:47.776Z,86.27
2022-10-10T23:48:35.719Z,86.45
2022-10-10T23:51:27.334Z,86.54
2022-10-10T23:54:14.649Z,86.53
2022-10-10T23:57:07.411Z,86.55
2022-10-10T23:59:44.480Z,86.68
